Time;durP1;ratioP1;P1;durP2;ratioP2;P2;SDS_P1;SDS_P2;PMS_P1;PMS_P2;Temp;Humidity;BMP_temperature;BMP_pressure;BME280_temperature;BME280_humidity;BME280_pressure;Samples;Min_cycle;Max_cycle;Signal;HPM_P1;HPM_P2
2021/06/23 00:00:20;;;;;;;8.50;2.22;;;14.60;81.60;;;;;;5177101;27;20042;-90
2021/06/23 00:02:49;;;;;;;7.15;1.95;;;14.60;81.70;;;;;;5176191;27;20082;-89
2021/06/23 00:05:16;;;;;;;6.95;2.03;;;14.60;81.90;;;;;;5162188;27;20043;-90
2021/06/23 00:07:42;;;;;;;5.85;2.20;;;14.60;81.90;;;;;;5161931;27;20130;-90
2021/06/23 00:10:09;;;;;;;6.03;2.10;;;14.60;82.00;;;;;;5164689;27;20087;-90
2021/06/23 00:12:35;;;;;;;6.15;2.28;;;14.50;81.90;;;;;;5159211;27;20442;-89
2021/06/23 00:15:03;;;;;;;7.78;2.40;;;14.60;82.00;;;;;;5155655;27;20050;-89
2021/06/23 00:17:31;;;;;;;6.68;2.03;;;14.60;81.90;;;;;;5155432;27;20088;-89
2021/06/23 00:19:56;;;;;;;6.15;2.00;;;14.50;81.70;;;;;;5156198;27;20049;-89
2021/06/23 00:22:22;;;;;;;6.85;2.20;;;14.50;81.90;;;;;;5158089;27;20042;-89
2021/06/23 00:24:48;;;;;;;7.40;2.20;;;14.50;81.80;;;;;;5176012;27;20043;-89
2021/06/23 00:27:14;;;;;;;5.30;1.75;;;14.50;81.90;;;;;;5176553;27;20056;-91
2021/06/23 00:29:40;;;;;;;5.22;1.95;;;14.40;81.70;;;;;;5173509;27;20125;-89
2021/06/23 00:32:11;;;;;;;7.18;2.45;;;14.40;81.70;;;;;;5176316;27;20050;-89
2021/06/23 00:34:37;;;;;;;5.43;2.10;;;14.40;81.90;;;;;;5175979;27;20053;-90
2021/06/23 00:37:03;;;;;;;8.80;2.47;;;14.40;81.90;;;;;;5174643;27;20034;-89
2021/06/23 00:39:31;;;;;;;8.60;2.65;;;14.40;81.70;;;;;;5175855;27;20042;-89
2021/06/23 00:41:57;;;;;;;6.90;2.17;;;14.40;81.90;;;;;;5173953;27;20046;-90
2021/06/23 00:44:23;;;;;;;7.70;2.40;;;14.40;81.80;;;;;;5154246;27;20049;-90
2021/06/23 00:46:49;;;;;;;9.07;2.40;;;14.40;81.90;;;;;;5155465;27;20046;-90
2021/06/23 00:49:15;;;;;;;6.53;2.30;;;14.30;81.70;;;;;;5156331;27;20069;-90
2021/06/23 00:51:41;;;;;;;5.35;1.88;;;14.30;81.50;;;;;;5154613;27;20042;-89
2021/06/23 00:54:11;;;;;;;6.50;2.30;;;14.30;81.50;;;;;;5155285;27;20042;-90
2021/06/23 00:56:38;;;;;;;4.95;2.20;;;14.20;82.20;;;;;;5155004;27;20051;-89
2021/06/23 00:59:05;;;;;;;6.85;2.30;;;14.20;81.60;;;;;;5160183;27;20043;-89
2021/06/23 01:01:33;;;;;;;5.43;1.95;;;14.20;81.80;;;;;;5174836;27;20081;-89
2021/06/23 01:04:00;;;;;;;6.03;1.95;;;14.10;82.10;;;;;;5154013;27;20440;-90
2021/06/23 01:06:27;;;;;;;7.30;2.30;;;14.10;82.30;;;;;;5156053;27;20070;-89
2021/06/23 01:08:53;;;;;;;6.05;2.08;;;14.10;82.20;;;;;;5154659;27;20111;-89
2021/06/23 01:11:20;;;;;;;5.95;2.17;;;14.10;82.40;;;;;;5154262;27;20698;-88
2021/06/23 01:14:06;;;;;;;6.93;2.45;;;14.20;82.50;;;;;;5158332;27;20125;-89
2021/06/23 01:16:38;;;;;;;6.93;2.08;;;14.10;81.90;;;;;;5175234;27;20076;-89
2021/06/23 01:19:10;;;;;;;6.05;2.15;;;14.10;82.90;;;;;;5175299;27;20058;-89
2021/06/23 01:21:36;;;;;;;8.70;2.22;;;14.10;82.40;;;;;;5175502;27;20076;-89
2021/06/23 01:24:02;;;;;;;6.63;2.28;;;14.10;82.40;;;;;;5175482;27;20133;-88
2021/06/23 01:26:28;;;;;;;5.82;2.13;;;14.10;82.40;;;;;;5174640;27;20046;-89
2021/06/23 01:28:54;;;;;;;6.22;1.90;;;14.10;82.50;;;;;;5169525;27;20070;-90
2021/06/23 01:31:21;;;;;;;5.32;2.20;;;14.10;82.60;;;;;;5154290;27;20141;-88
2021/06/23 01:33:48;;;;;;;6.35;2.17;;;14.10;82.30;;;;;;5153595;27;20042;-88
2021/06/23 01:36:14;;;;;;;5.90;2.30;;;14.10;82.40;;;;;;5154455;27;20401;-89
2021/06/23 01:38:39;;;;;;;10.35;2.63;;;14.10;82.50;;;;;;5154215;27;20050;-88
2021/06/23 01:41:05;;;;;;;5.95;2.33;;;14.10;82.60;;;;;;5156787;27;20454;-89
2021/06/23 01:43:31;;;;;;;7.05;2.33;;;14.10;82.80;;;;;;5159404;27;20039;-89
2021/06/23 01:45:57;;;;;;;7.75;2.67;;;14.10;83.00;;;;;;5179350;27;20129;-88
2021/06/23 01:48:26;;;;;;;6.32;2.58;;;14.10;83.00;;;;;;5178064;27;20053;-88
2021/06/23 01:50:53;;;;;;;5.38;2.38;;;14.10;83.00;;;;;;5179509;27;20054;-88
2021/06/23 01:53:18;;;;;;;5.65;2.20;;;14.10;82.90;;;;;;5178664;27;20504;-87
2021/06/23 01:55:47;;;;;;;6.47;2.28;;;14.10;82.50;;;;;;5178971;27;20042;-88
2021/06/23 01:58:14;;;;;;;7.88;2.65;;;14.10;82.30;;;;;;5178653;27;20054;-88
2021/06/23 02:00:52;;;;;;;7.13;2.20;;;14.00;82.00;;;;;;5176114;27;20053;-88
2021/06/23 02:03:28;;;;;;;5.43;2.00;;;14.00;82.30;;;;;;5176972;27;20050;-88
2021/06/23 02:06:06;;;;;;;5.57;1.95;;;14.00;82.30;;;;;;5157862;27;20046;-88
2021/06/23 02:08:43;;;;;;;7.25;2.47;;;14.00;81.90;;;;;;5156676;27;20054;-88
2021/06/23 02:11:24;;;;;;;8.52;2.60;;;13.90;81.70;;;;;;5157886;27;20055;-88
2021/06/23 02:14:09;;;;;;;6.95;2.35;;;14.00;82.30;;;;;;5157779;27;20447;-88
2021/06/23 02:16:37;;;;;;;4.40;2.00;;;14.00;82.10;;;;;;5156711;27;20054;-87
2021/06/23 02:19:05;;;;;;;5.40;1.98;;;13.90;82.10;;;;;;5157727;27;20167;-88
2021/06/23 02:21:34;;;;;;;6.63;2.35;;;13.90;82.50;;;;;;5157154;27;20418;-89
2021/06/23 02:24:00;;;;;;;8.25;2.30;;;13.90;82.80;;;;;;5167102;27;20042;-89
2021/06/23 02:26:26;;;;;;;7.63;2.30;;;13.90;82.80;;;;;;5177964;27;20053;-89
2021/06/23 02:28:52;;;;;;;6.38;2.08;;;13.90;83.10;;;;;;5177479;27;20129;-88
2021/06/23 02:31:18;;;;;;;7.78;2.28;;;13.90;83.00;;;;;;5177993;27;20046;-89
2021/06/23 02:33:46;;;;;;;7.03;2.33;;;14.00;83.00;;;;;;5177367;27;20524;-88
2021/06/23 02:36:12;;;;;;;7.93;2.47;;;13.90;83.00;;;;;;5170229;27;20039;-89
2021/06/23 02:38:39;;;;;;;5.35;2.20;;;13.90;83.00;;;;;;5157031;27;20446;-88
2021/06/23 02:41:05;;;;;;;8.07;2.30;;;13.90;83.70;;;;;;5157339;27;20054;-88
2021/06/23 02:43:31;;;;;;;5.40;2.13;;;13.90;82.90;;;;;;5163607;27;20409;-89
2021/06/23 02:45:57;;;;;;;7.03;2.30;;;13.90;83.30;;;;;;5178018;27;20046;-89
2021/06/23 02:48:25;;;;;;;5.57;2.20;;;13.90;83.40;;;;;;5174683;27;20122;-89
2021/06/23 02:51:16;;;;;;;7.95;2.13;;;13.90;82.90;;;;;;5156182;27;20074;-88
2021/06/23 02:53:42;;;;;;;5.95;2.20;;;13.90;82.30;;;;;;5156771;27;20050;-90
2021/06/23 02:56:08;;;;;;;8.25;2.10;;;13.90;82.90;;;;;;5157232;27;20057;-90
2021/06/23 02:58:35;;;;;;;6.38;2.08;;;13.90;82.80;;;;;;5156292;27;20051;-88
2021/06/23 03:01:02;;;;;;;8.23;2.20;;;13.90;82.80;;;;;;5157163;27;20046;-89
2021/06/23 03:03:29;;;;;;;7.50;1.98;;;13.90;82.70;;;;;;5156532;27;20050;-89
2021/06/23 03:05:55;;;;;;;5.47;2.30;;;13.90;82.40;;;;;;5156650;27;20038;-88
2021/06/23 03:08:21;;;;;;;6.38;2.08;;;13.90;82.80;;;;;;5156223;27;20051;-88
2021/06/23 03:10:47;;;;;;;6.30;2.00;;;13.90;82.80;;;;;;5156234;27;20398;-88
2021/06/23 03:13:12;;;;;;;6.35;2.22;;;13.80;82.60;;;;;;5156205;27;20550;-88
2021/06/23 03:15:40;;;;;;;4.90;2.00;;;13.80;82.50;;;;;;5156635;27;20039;-88
2021/06/23 03:18:05;;;;;;;5.15;2.00;;;13.80;82.80;;;;;;5156574;27;20046;-89
2021/06/23 03:20:31;;;;;;;5.32;1.80;;;13.80;82.20;;;;;;5156147;27;20050;-87
2021/06/23 03:22:57;;;;;;;5.53;1.90;;;13.80;82.10;;;;;;5155845;27;20481;-87
2021/06/23 03:25:23;;;;;;;5.68;1.88;;;13.80;82.50;;;;;;5155066;27;20043;-86
2021/06/23 03:27:53;;;;;;;5.55;1.90;;;13.80;82.50;;;;;;5155921;27;20046;-85
2021/06/23 03:30:24;;;;;;;6.90;1.90;;;13.80;82.60;;;;;;5155868;27;20123;-85
2021/06/23 03:32:51;;;;;;;6.05;2.13;;;13.70;82.70;;;;;;5155274;27;20053;-85
2021/06/23 03:35:20;;;;;;;5.25;2.00;;;13.70;82.80;;;;;;5155906;27;20486;-85
2021/06/23 03:37:49;;;;;;;6.78;2.08;;;13.80;82.90;;;;;;5155564;27;20043;-84
2021/06/23 03:40:16;;;;;;;5.25;2.00;;;13.70;83.00;;;;;;5175537;27;20053;-85
2021/06/23 03:42:42;;;;;;;6.25;2.05;;;13.70;83.50;;;;;;5176347;27;20054;-84
2021/06/23 03:45:09;;;;;;;6.47;2.05;;;13.70;83.60;;;;;;5176480;27;20046;-84
2021/06/23 03:47:35;;;;;;;5.97;1.77;;;13.70;83.80;;;;;;5175770;27;20141;-84
2021/06/23 03:50:00;;;;;;;5.13;1.90;;;13.80;83.90;;;;;;5175952;27;20121;-85
2021/06/23 03:52:26;;;;;;;5.30;1.70;;;13.80;83.80;;;;;;5176224;27;20057;-84
2021/06/23 03:54:53;;;;;;;6.10;2.03;;;13.80;83.60;;;;;;5175429;27;20446;-84
2021/06/23 03:57:19;;;;;;;6.45;1.90;;;13.70;83.80;;;;;;5176572;27;20042;-84
2021/06/23 03:59:51;;;;;;;6.53;1.95;;;13.80;83.90;;;;;;5175314;27;20046;-84
2021/06/23 04:02:17;;;;;;;5.28;1.70;;;13.80;83.90;;;;;;5176202;27;20064;-85
2021/06/23 04:04:46;;;;;;;7.03;2.00;;;13.80;83.80;;;;;;5160294;27;20053;-85
2021/06/23 04:07:13;;;;;;;5.32;1.77;;;13.80;83.90;;;;;;5154368;27;20046;-85
2021/06/23 04:09:39;;;;;;;6.90;2.00;;;13.80;83.90;;;;;;5154353;27;20103;-85
2021/06/23 04:12:05;;;;;;;5.45;1.65;;;13.80;84.00;;;;;;5155365;27;20055;-84
2021/06/23 04:14:31;;;;;;;5.55;1.60;;;13.80;83.80;;;;;;5154275;27;20055;-85
2021/06/23 04:16:57;;;;;;;4.70;1.55;;;13.80;83.50;;;;;;5155148;27;20047;-85
2021/06/23 04:19:23;;;;;;;5.20;1.60;;;13.80;83.50;;;;;;5168038;27;20039;-86
2021/06/23 04:21:49;;;;;;;5.68;1.73;;;13.80;83.50;;;;;;5174770;27;20083;-85
2021/06/23 04:24:15;;;;;;;4.03;1.63;;;13.80;83.30;;;;;;5176041;27;20050;-84
2021/06/23 04:26:41;;;;;;;4.20;1.70;;;13.80;83.00;;;;;;5175593;27;20477;-85
2021/06/23 04:29:07;;;;;;;6.00;1.73;;;13.80;83.30;;;;;;5174871;27;20081;-85
2021/06/23 04:31:34;;;;;;;6.20;1.80;;;13.80;83.00;;;;;;5175273;27;20042;-86
2021/06/23 04:34:00;;;;;;;7.00;1.98;;;13.80;83.40;;;;;;5166716;27;20047;-85
2021/06/23 04:36:26;;;;;;;6.22;1.80;;;13.80;83.30;;;;;;5153558;27;20085;-85
2021/06/23 04:38:52;;;;;;;5.72;1.58;;;13.80;83.20;;;;;;5154832;27;20051;-85
2021/06/23 04:41:17;;;;;;;3.95;1.30;;;13.80;83.90;;;;;;5154909;27;20050;-85
2021/06/23 04:43:43;;;;;;;5.60;1.70;;;13.80;82.90;;;;;;5153758;27;20115;-85
2021/06/23 04:46:09;;;;;;;5.13;1.85;;;13.80;82.70;;;;;;5154633;27;20119;-85
2021/06/23 04:48:34;;;;;;;7.55;1.90;;;13.80;82.70;;;;;;5154172;27;20454;-85
2021/06/23 04:51:00;;;;;;;5.72;1.80;;;13.80;82.80;;;;;;5153793;27;20057;-85
2021/06/23 04:53:26;;;;;;;5.75;1.88;;;13.80;82.90;;;;;;5155708;27;20470;-85
2021/06/23 04:55:54;;;;;;;3.95;1.80;;;13.80;83.00;;;;;;5175322;27;20054;-85
2021/06/23 04:58:20;;;;;;;6.05;1.70;;;13.80;83.10;;;;;;5174476;27;20485;-85
2021/06/23 05:00:47;;;;;;;5.82;1.63;;;13.80;83.20;;;;;;5173504;27;20107;-85
2021/06/23 05:03:12;;;;;;;7.25;1.77;;;13.90;83.10;;;;;;5174563;27;20054;-85
2021/06/23 05:05:39;;;;;;;6.70;1.65;;;13.90;82.80;;;;;;5174930;27;20052;-85
2021/06/23 05:08:06;;;;;;;6.47;1.75;;;13.90;82.60;;;;;;5175175;27;20141;-84
2021/06/23 05:10:32;;;;;;;6.63;2.10;;;13.90;83.00;;;;;;5166894;27;20049;-86
2021/06/23 05:12:58;;;;;;;5.20;1.70;;;13.90;83.30;;;;;;5166679;27;20038;-85
2021/06/23 05:15:24;;;;;;;8.15;2.55;;;13.90;83.00;;;;;;5168553;27;20110;-87
2021/06/23 05:17:50;;;;;;;7.28;2.25;;;13.90;84.00;;;;;;5169680;27;20057;-86
2021/06/23 05:20:16;;;;;;;8.60;2.00;;;14.00;83.70;;;;;;5171901;27;20064;-86
2021/06/23 05:22:42;;;;;;;7.38;2.10;;;14.00;84.00;;;;;;5164293;27;20106;-87
2021/06/23 05:25:09;;;;;;;6.95;1.92;;;14.00;84.00;;;;;;5171694;27;20438;-87
2021/06/23 05:27:35;;;;;;;5.90;1.90;;;14.10;84.10;;;;;;5167398;27;20054;-86
2021/06/23 05:30:00;;;;;;;8.32;2.58;;;14.00;84.00;;;;;;5169129;27;20090;-87
2021/06/23 05:32:26;;;;;;;15.77;3.05;;;14.10;84.30;;;;;;5160129;27;20054;-87
2021/06/23 05:34:52;;;;;;;9.88;2.55;;;14.10;84.80;;;;;;5161173;27;20493;-86
2021/06/23 05:37:17;;;;;;;14.07;2.72;;;14.10;84.80;;;;;;5179591;27;20053;-87
2021/06/23 05:39:43;;;;;;;9.30;2.30;;;14.10;84.90;;;;;;5163788;27;20462;-88
2021/06/23 05:42:09;;;;;;;7.85;2.33;;;14.10;84.70;;;;;;5161388;27;20138;-88
2021/06/23 05:44:34;;;;;;;12.27;2.42;;;14.10;84.60;;;;;;5160982;27;20054;-89
2021/06/23 05:47:00;;;;;;;9.50;2.53;;;14.10;84.40;;;;;;5160848;27;20046;-88
2021/06/23 05:49:26;;;;;;;9.48;2.53;;;14.10;84.40;;;;;;5170606;27;20038;-87
2021/06/23 05:51:52;;;;;;;9.27;2.50;;;14.20;84.50;;;;;;5182177;27;20065;-87
2021/06/23 05:54:18;;;;;;;9.82;2.40;;;14.20;84.50;;;;;;5181430;27;20044;-87
2021/06/23 05:56:43;;;;;;;8.95;2.45;;;14.20;84.40;;;;;;5181637;27;20053;-87
2021/06/23 05:59:09;;;;;;;11.40;2.05;;;14.20;84.10;;;;;;5181862;27;20082;-85
2021/06/23 06:01:35;;;;;;;6.80;2.00;;;14.20;84.10;;;;;;5175403;27;20054;-83
2021/06/23 06:04:01;;;;;;;6.97;2.10;;;14.20;84.00;;;;;;5170612;27;20042;-84
2021/06/23 06:06:27;;;;;;;7.88;2.15;;;14.20;83.90;;;;;;5173634;27;20500;-83
2021/06/23 06:08:54;;;;;;;7.47;2.03;;;14.30;84.00;;;;;;5159053;27;20046;-84
2021/06/23 06:11:19;;;;;;;9.27;2.42;;;14.30;84.20;;;;;;5175244;27;20094;-84
2021/06/23 06:13:47;;;;;;;7.05;1.90;;;14.30;84.10;;;;;;5155620;27;20047;-84
2021/06/23 06:16:13;;;;;;;5.95;1.92;;;14.40;83.90;;;;;;5138429;27;20046;-85
2021/06/23 06:18:39;;;;;;;9.68;2.15;;;14.40;84.00;;;;;;5139372;27;20118;-85
2021/06/23 06:21:05;;;;;;;6.70;1.95;;;14.40;84.00;;;;;;5149845;27;20047;-84
2021/06/23 06:23:31;;;;;;;8.88;2.22;;;14.50;84.00;;;;;;5160309;27;20074;-84
2021/06/23 06:25:56;;;;;;;11.95;2.65;;;14.50;83.90;;;;;;5158676;27;20094;-84
2021/06/23 06:28:22;;;;;;;12.68;2.72;;;14.50;83.90;;;;;;5155665;27;20046;-84
2021/06/23 06:30:49;;;;;;;9.55;2.30;;;14.50;83.80;;;;;;5156928;27;20045;-84
2021/06/23 06:33:15;;;;;;;9.88;2.20;;;14.50;83.90;;;;;;5156633;27;20051;-84
2021/06/23 06:35:42;;;;;;;11.07;2.60;;;14.50;83.80;;;;;;5155961;27;20053;-85
2021/06/23 06:38:07;;;;;;;9.57;2.50;;;14.60;83.70;;;;;;5154797;27;20057;-84
2021/06/23 06:40:33;;;;;;;7.88;2.35;;;14.50;84.50;;;;;;5151927;27;20046;-85
2021/06/23 06:42:59;;;;;;;12.48;2.33;;;14.60;83.70;;;;;;5155854;27;20043;-84
2021/06/23 06:45:25;;;;;;;10.27;2.40;;;14.60;83.70;;;;;;5156677;27;20455;-85
2021/06/23 06:47:51;;;;;;;10.00;2.15;;;14.60;83.60;;;;;;5156775;27;20051;-84
2021/06/23 06:50:17;;;;;;;7.88;2.10;;;14.60;83.60;;;;;;5156052;27;20050;-84
2021/06/23 06:52:42;;;;;;;9.65;2.00;;;14.60;83.70;;;;;;5156568;27;20046;-85
2021/06/23 06:55:09;;;;;;;8.82;2.47;;;14.60;83.70;;;;;;5153747;27;20043;-84
2021/06/23 06:57:35;;;;;;;8.50;2.45;;;14.60;83.80;;;;;;5146302;27;20141;-84
2021/06/23 07:00:03;;;;;;;10.40;2.58;;;14.70;83.60;;;;;;5156627;27;20119;-85
2021/06/23 07:02:29;;;;;;;8.15;1.90;;;14.70;83.60;;;;;;5155175;27;20050;-85
2021/06/23 07:04:54;;;;;;;5.97;1.85;;;14.70;83.70;;;;;;5155334;27;20046;-84
2021/06/23 07:07:20;;;;;;;8.27;2.08;;;14.70;83.50;;;;;;5156589;27;20119;-83
2021/06/23 07:09:46;;;;;;;14.57;2.40;;;14.80;83.60;;;;;;5155135;27;20062;-84
2021/06/23 07:12:12;;;;;;;8.35;2.08;;;14.80;83.30;;;;;;5156317;27;20046;-84
2021/06/23 07:14:37;;;;;;;9.50;1.73;;;14.80;83.40;;;;;;5155285;27;20558;-85
2021/06/23 07:17:03;;;;;;;11.40;2.08;;;14.90;83.40;;;;;;5155059;27;20042;-85
2021/06/23 07:19:29;;;;;;;11.88;2.10;;;14.80;82.80;;;;;;5156227;27;20103;-84
2021/06/23 07:21:54;;;;;;;8.07;1.90;;;14.90;83.00;;;;;;5155963;27;20141;-84
2021/06/23 07:24:21;;;;;;;12.82;2.42;;;14.90;83.00;;;;;;5155366;27;20382;-84
2021/06/23 07:26:48;;;;;;;11.52;2.35;;;15.00;83.00;;;;;;5155602;27;20501;-84
2021/06/23 07:29:15;;;;;;;10.38;2.17;;;15.00;82.60;;;;;;5154728;27;20046;-85
2021/06/23 07:31:55;;;;;;;7.68;2.10;;;15.00;82.80;;;;;;5154891;27;20430;-85
2021/06/23 07:36:50;;;;;;;8.75;2.00;;;15.00;82.80;;;;;;5155931;27;20061;-84
2021/06/23 07:39:18;;;;;;;7.53;1.88;;;15.10;82.90;;;;;;5154950;27;20046;-85
2021/06/23 07:41:46;;;;;;;10.88;2.20;;;15.20;82.90;;;;;;5154984;27;20393;-85
2021/06/23 07:44:14;;;;;;;10.27;2.15;;;15.20;82.50;;;;;;5154662;27;20500;-85
2021/06/23 07:46:52;;;;;;;11.88;2.10;;;15.30;82.20;;;;;;5154455;27;20050;-85
2021/06/23 07:49:20;;;;;;;11.95;2.10;;;15.30;82.40;;;;;;5155183;27;20042;-85
2021/06/23 07:51:56;;;;;;;5.25;1.50;;;15.30;82.30;;;;;;5154925;27;20046;-85
2021/06/23 08:10:37;;;;;;;13.27;3.00;;;15.70;81.10;;;;;;5154481;27;20070;-84
2021/06/23 08:13:04;;;;;;;10.73;2.10;;;15.80;80.50;;;;;;5154076;27;20096;-83
2021/06/23 08:15:35;;;;;;;8.18;1.70;;;15.80;79.80;;;;;;5154682;27;20043;-83
2021/06/23 08:18:00;;;;;;;9.07;2.10;;;15.80;79.90;;;;;;5155170;27;20051;-85
2021/06/23 08:20:27;;;;;;;6.43;1.85;;;15.90;80.50;;;;;;5153604;27;20041;-84
2021/06/23 08:22:53;;;;;;;7.32;1.83;;;15.90;80.90;;;;;;5154914;27;20094;-83
2021/06/23 08:25:21;;;;;;;10.43;2.30;;;16.00;80.70;;;;;;5154537;27;20039;-83
2021/06/23 08:27:47;;;;;;;8.05;1.90;;;16.00;80.00;;;;;;5154028;27;20053;-83
2021/06/23 08:30:14;;;;;;;12.13;2.40;;;16.00;80.00;;;;;;5154701;27;20398;-83
2021/06/23 08:32:40;;;;;;;6.63;1.85;;;16.00;79.50;;;;;;5153412;27;20517;-82
2021/06/23 08:35:07;;;;;;;16.70;2.30;;;16.10;79.60;;;;;;5142706;27;20062;-86
2021/06/23 08:37:33;;;;;;;9.90;2.33;;;16.10;79.50;;;;;;5152502;27;20125;-85
2021/06/23 08:39:59;;;;;;;12.80;2.20;;;16.20;79.80;;;;;;5153781;27;20504;-87
2021/06/23 08:42:25;;;;;;;7.57;2.00;;;16.30;80.00;;;;;;5141041;27;20050;-85
2021/06/23 08:44:51;;;;;;;8.32;1.70;;;16.30;80.10;;;;;;5154354;27;20046;-86
2021/06/23 08:47:17;;;;;;;11.00;1.92;;;16.50;80.30;;;;;;5154490;27;20043;-86
2021/06/23 08:49:44;;;;;;;9.10;2.17;;;16.50;79.70;;;;;;5150745;27;20099;-86
2021/06/23 08:52:10;;;;;;;9.48;2.65;;;16.60;79.60;;;;;;5154314;27;20050;-87
2021/06/23 08:54:36;;;;;;;9.02;2.20;;;16.60;79.00;;;;;;5153143;27;20051;-86
2021/06/23 08:57:05;;;;;;;8.75;2.00;;;16.70;78.90;;;;;;5153206;27;20047;-87
2021/06/23 08:59:30;;;;;;;9.82;2.03;;;16.70;79.10;;;;;;5154228;27;20064;-87
2021/06/23 09:01:56;;;;;;;8.43;2.08;;;16.80;79.20;;;;;;5154154;27;20553;-85
2021/06/23 09:04:24;;;;;;;7.70;2.13;;;16.90;79.30;;;;;;5152643;27;20134;-88
2021/06/23 09:06:58;;;;;;;8.23;2.03;;;16.90;79.30;;;;;;5153551;27;20442;-86
2021/06/23 09:09:28;;;;;;;17.08;2.55;;;17.00;79.70;;;;;;5149002;27;20095;-87
2021/06/23 09:12:14;;;;;;;8.07;2.03;;;17.00;79.10;;;;;;5154325;27;20042;-86
2021/06/23 09:14:40;;;;;;;7.90;1.95;;;17.10;79.10;;;;;;5153296;27;20409;-87
2021/06/23 09:17:08;;;;;;;6.30;1.98;;;17.10;79.20;;;;;;5153564;27;20051;-85
2021/06/23 09:19:58;;;;;;;10.88;2.22;;;17.20;79.10;;;;;;5154137;27;20122;-85
2021/06/23 09:22:32;;;;;;;8.52;1.95;;;17.30;77.50;;;;;;5140375;27;20099;-87
2021/06/23 09:24:59;;;;;;;6.47;2.03;;;17.30;78.10;;;;;;5153347;27;20483;-88
2021/06/23 09:27:27;;;;;;;7.93;1.80;;;17.40;78.90;;;;;;5153705;27;20058;-88
2021/06/23 09:29:53;;;;;;;6.45;2.08;;;17.40;78.80;;;;;;5142997;27;20104;-87
2021/06/23 09:32:20;;;;;;;4.63;1.90;;;17.50;78.90;;;;;;5132671;28;20051;-88
2021/06/23 09:34:48;;;;;;;10.77;1.95;;;17.50;79.20;;;;;;5148269;27;20047;-85
2021/06/23 09:37:33;;;;;;;10.82;2.08;;;17.60;78.70;;;;;;5154001;27;20155;-86
2021/06/23 09:40:12;;;;;;;13.30;2.60;;;17.60;78.10;;;;;;5153974;27;20054;-85
2021/06/23 09:42:50;;;;;;;7.38;2.08;;;17.60;76.10;;;;;;5153535;27;20062;-86
2021/06/23 09:45:18;;;;;;;6.30;2.10;;;17.60;77.30;;;;;;5152691;27;20449;-84
2021/06/23 09:47:46;;;;;;;9.55;1.95;;;17.60;77.10;;;;;;5153883;27;20051;-88
2021/06/23 09:50:20;;;;;;;11.90;1.77;;;17.70;77.10;;;;;;5137651;27;20551;-85
2021/06/23 09:52:56;;;;;;;8.38;1.92;;;17.70;76.20;;;;;;5152314;27;20053;-86
2021/06/23 09:55:42;;;;;;;7.57;1.88;;;17.70;77.40;;;;;;5152130;27;20046;-86
2021/06/23 09:58:10;;;;;;;7.82;1.75;;;17.70;78.10;;;;;;5151392;27;20046;-87
2021/06/23 10:01:05;;;;;;;9.55;2.15;;;17.80;78.70;;;;;;5134939;27;20043;-84
2021/06/23 10:03:38;;;;;;;6.55;2.10;;;17.80;76.40;;;;;;5147412;27;20394;-87
2021/06/23 10:06:20;;;;;;;;;;;17.90;78.00;;;;;;5157252;27;20129;-86
2021/06/23 10:08:47;;;;;;;7.32;2.00;;;17.90;78.40;;;;;;5156748;27;20018;-85
2021/06/23 10:11:13;;;;;;;6.80;1.90;;;17.90;78.60;;;;;;5157392;27;20070;-88
2021/06/23 10:13:39;;;;;;;6.40;1.80;;;18.00;78.50;;;;;;5146443;27;20538;-86
2021/06/23 10:16:05;;;;;;;8.45;2.00;;;18.10;78.90;;;;;;5136875;27;20059;-87
2021/06/23 10:18:32;;;;;;;6.85;1.55;;;18.10;78.80;;;;;;5136930;27;20130;-88
2021/06/23 10:20:58;;;;;;;6.30;1.90;;;18.20;78.90;;;;;;5136555;27;20047;-87
2021/06/23 10:23:24;;;;;;;5.60;1.90;;;18.20;78.60;;;;;;5137789;27;20062;-84
2021/06/23 10:25:50;;;;;;;9.63;1.90;;;18.20;78.70;;;;;;5157571;27;20051;-88
2021/06/23 10:28:18;;;;;;;5.03;1.67;;;18.30;78.00;;;;;;5156666;27;20470;-85
2021/06/23 10:30:45;;;;;;;5.85;2.05;;;18.30;78.10;;;;;;5157238;27;20046;-84
2021/06/23 10:33:12;;;;;;;6.40;1.90;;;18.30;78.30;;;;;;5156938;27;20053;-88
2021/06/23 10:35:38;;;;;;;8.80;2.03;;;18.40;78.50;;;;;;5156091;27;20081;-86
2021/06/23 10:38:05;;;;;;;9.50;2.53;;;18.40;78.50;;;;;;5157072;27;20046;-86
2021/06/23 10:40:31;;;;;;;6.03;1.80;;;18.40;77.10;;;;;;5157003;27;20038;-88
2021/06/23 10:43:14;;;;;;;7.47;2.20;;;18.40;77.60;;;;;;5150112;27;20103;-86
2021/06/23 10:45:42;;;;;;;7.80;2.13;;;18.40;78.00;;;;;;5135246;27;20134;-87
2021/06/23 10:48:08;;;;;;;7.45;1.90;;;18.40;78.20;;;;;;5154541;27;20069;-87
2021/06/23 10:50:34;;;;;;;7.13;1.98;;;18.40;78.40;;;;;;5154847;27;20686;-87
2021/06/23 10:53:01;;;;;;;6.25;1.80;;;18.40;78.60;;;;;;5153453;27;20091;-85
2021/06/23 10:55:27;;;;;;;8.07;2.15;;;18.40;78.70;;;;;;5153445;27;20045;-86
2021/06/23 10:57:55;;;;;;;6.00;1.80;;;18.50;78.70;;;;;;5136995;27;20051;-84
2021/06/23 11:00:21;;;;;;;10.45;2.17;;;18.50;78.60;;;;;;5135953;27;20395;-84
2021/06/23 11:02:49;;;;;;;9.15;2.05;;;18.50;76.90;;;;;;5135248;27;20043;-85
2021/06/23 11:05:42;;;;;;;8.15;2.20;;;18.50;76.90;;;;;;5125963;27;20526;-85
2021/06/23 11:08:29;;;;;;;6.78;1.98;;;18.50;77.00;;;;;;5156331;27;20049;-85
2021/06/23 11:10:57;;;;;;;6.18;1.80;;;18.50;77.50;;;;;;5155712;27;20054;-85
2021/06/23 11:13:25;;;;;;;6.45;1.90;;;18.50;78.00;;;;;;5155444;27;20038;-85
2021/06/23 11:15:53;;;;;;;6.72;1.75;;;18.60;78.30;;;;;;5155948;27;20057;-86
2021/06/23 11:18:24;;;;;;;6.22;1.67;;;18.60;79.00;;;;;;5156449;27;20133;-85
2021/06/23 11:20:58;;;;;;;5.93;2.00;;;18.70;78.30;;;;;;5155429;27;20405;-86
2021/06/23 11:23:59;;;;;;;8.05;2.00;;;18.70;77.70;;;;;;5151324;27;20111;-86
2021/06/23 11:26:28;;;;;;;7.38;2.10;;;18.70;75.70;;;;;;5156046;27;20050;-85
2021/06/23 11:29:04;;;;;;;8.30;1.90;;;18.70;76.50;;;;;;5143643;27;20042;-84
2021/06/23 11:31:44;;;;;;;7.95;1.63;;;18.70;77.00;;;;;;5155135;27;20054;-86
2021/06/23 11:34:11;;;;;;;6.10;1.55;;;18.70;76.60;;;;;;5148453;27;20051;-85
2021/06/23 11:36:38;;;;;;;6.90;1.70;;;18.70;77.10;;;;;;5138414;27;20067;-86
2021/06/23 11:39:06;;;;;;;5.72;1.75;;;18.80;76.10;;;;;;5134981;27;20128;-84
2021/06/23 11:41:32;;;;;;;5.97;1.80;;;18.80;76.40;;;;;;5148532;27;20065;-85
2021/06/23 11:43:57;;;;;;;7.32;2.00;;;18.80;76.30;;;;;;5149494;27;20092;-84
2021/06/23 11:46:23;;;;;;;8.77;1.83;;;18.90;76.10;;;;;;5152671;27;20494;-84
2021/06/23 11:48:49;;;;;;;6.97;2.08;;;18.90;74.10;;;;;;5155665;27;20043;-87
2021/06/23 11:51:15;;;;;;;9.25;1.65;;;18.90;73.60;;;;;;5154893;27;20079;-84
2021/06/23 11:53:41;;;;;;;6.68;1.80;;;18.90;76.20;;;;;;5154893;27;20042;-86
2021/06/23 11:56:07;;;;;;;4.85;1.50;;;18.90;75.50;;;;;;5155493;27;20050;-85
2021/06/23 11:58:33;;;;;;;6.72;1.83;;;18.90;76.00;;;;;;5154587;27;20077;-87
2021/06/23 12:00:59;;;;;;;5.00;1.80;;;19.00;76.30;;;;;;5155175;27;20487;-86
2021/06/23 12:03:26;;;;;;;8.88;2.05;;;19.00;76.40;;;;;;5154562;27;20088;-85
2021/06/23 12:05:52;;;;;;;6.40;1.90;;;19.00;75.70;;;;;;5154357;27;20051;-88
2021/06/23 12:08:18;;;;;;;6.25;1.77;;;19.10;76.20;;;;;;5155036;27;20112;-86
2021/06/23 12:10:45;;;;;;;5.88;1.70;;;19.20;76.30;;;;;;5154377;27;20498;-87
2021/06/23 12:13:13;;;;;;;5.50;1.70;;;19.20;75.70;;;;;;5154263;27;20506;-84
2021/06/23 12:15:39;;;;;;;8.63;2.05;;;19.20;75.70;;;;;;5154742;27;20047;-85
2021/06/23 12:18:07;;;;;;;5.57;1.80;;;19.20;73.40;;;;;;5154993;27;20517;-86
2021/06/23 12:20:34;;;;;;;4.93;1.77;;;19.20;73.50;;;;;;5135021;27;20509;-86
2021/06/23 12:23:03;;;;;;;5.57;1.58;;;19.20;74.80;;;;;;5154482;27;20039;-86
2021/06/23 12:25:33;;;;;;;5.47;1.55;;;19.30;74.70;;;;;;5152845;27;20042;-86
2021/06/23 12:27:59;;;;;;;5.82;1.60;;;19.40;74.90;;;;;;5153915;27;20047;-87
2021/06/23 12:30:27;;;;;;;6.13;1.88;;;19.40;75.40;;;;;;5135469;27;20490;-84
2021/06/23 12:32:54;;;;;;;8.75;2.08;;;19.40;75.60;;;;;;5154409;27;20095;-86
2021/06/23 12:35:20;;;;;;;6.15;1.70;;;19.50;75.30;;;;;;5154015;27;20058;-85
2021/06/23 12:37:46;;;;;;;6.60;2.00;;;19.60;75.50;;;;;;5153229;27;20035;-86
2021/06/23 12:40:12;;;;;;;8.93;1.77;;;19.60;75.70;;;;;;5154679;27;20435;-85
2021/06/23 12:42:38;;;;;;;7.78;2.20;;;19.60;73.00;;;;;;5150434;27;20098;-87
2021/06/23 12:45:04;;;;;;;7.22;1.77;;;19.60;72.70;;;;;;5154033;27;20050;-87
2021/06/23 12:47:29;;;;;;;5.90;1.75;;;19.70;73.90;;;;;;5154087;27;20187;-87
2021/06/23 12:49:55;;;;;;;7.20;1.80;;;19.70;74.50;;;;;;5153660;27;20509;-87
2021/06/23 12:52:21;;;;;;;4.50;1.80;;;19.70;74.90;;;;;;5154362;27;20046;-87
2021/06/23 12:54:46;;;;;;;7.20;1.80;;;19.80;74.60;;;;;;5153538;27;20077;-87
2021/06/23 12:57:13;;;;;;;7.30;1.75;;;19.80;75.10;;;;;;5154566;27;20047;-85
2021/06/23 12:59:39;;;;;;;6.10;1.50;;;19.90;74.20;;;;;;5153371;27;20493;-86
2021/06/23 13:02:05;;;;;;;6.05;1.60;;;19.90;74.40;;;;;;5153066;27;20047;-85
2021/06/23 13:04:30;;;;;;;4.45;1.50;;;19.90;74.90;;;;;;5153208;27;20066;-86
2021/06/23 13:06:56;;;;;;;6.13;1.63;;;19.90;75.20;;;;;;5155809;27;20079;-89